Time;durP1;ratioP1;P1;durP2;ratioP2;P2;SDS_P1;SDS_P2;PMS_P1;PMS_P2;Temp;Humidity;BMP_temperature;BMP_pressure;BME280_temperature;BME280_humidity;BME280_pressure;Samples;Min_cycle;Max_cycle;Signal;HPM_P1;HPM_P2
2021/03/23 00:02:13;;;;;;;34.60;11.33;;;7.30;99.90;;;;;;5063375;28;20257;-80
2021/03/23 00:04:39;;;;;;;24.30;9.87;;;7.30;99.90;;;;;;5061648;28;20284;-81
2021/03/23 00:07:06;;;;;;;23.10;10.00;;;7.20;99.90;;;;;;5063073;28;20686;-82
2021/03/23 00:09:32;;;;;;;28.07;10.73;;;7.30;99.90;;;;;;5065809;28;20200;-82
2021/03/23 00:11:59;;;;;;;26.00;10.13;;;7.30;99.90;;;;;;5062095;28;20208;-81
2021/03/23 00:14:25;;;;;;;26.87;10.87;;;7.30;99.90;;;;;;5064190;28;20545;-81
2021/03/23 00:16:53;;;;;;;23.30;10.27;;;7.40;99.90;;;;;;5063362;28;20605;-82
2021/03/23 00:19:19;;;;;;;25.53;10.70;;;7.40;99.90;;;;;;5061829;28;20204;-81
2021/03/23 00:21:45;;;;;;;23.67;10.97;;;7.40;99.90;;;;;;5064743;28;20232;-81
2021/03/23 00:24:12;;;;;;;27.70;11.00;;;7.30;99.90;;;;;;5073330;28;20214;-81
2021/03/23 00:26:38;;;;;;;23.40;10.03;;;7.20;99.90;;;;;;5072796;28;20763;-81
2021/03/23 00:29:05;;;;;;;22.77;10.07;;;7.20;99.90;;;;;;5072888;28;20232;-82
2021/03/23 00:31:33;;;;;;;27.00;10.53;;;7.10;99.90;;;;;;5072852;28;20280;-83
2021/03/23 00:34:03;;;;;;;24.83;10.30;;;7.00;99.90;;;;;;5070995;28;20204;-82
2021/03/23 00:36:33;;;;;;;26.17;10.20;;;7.00;99.90;;;;;;5053101;28;20745;-82
2021/03/23 00:39:01;;;;;;;19.07;9.63;;;7.10;99.90;;;;;;5052487;28;20228;-81
2021/03/23 00:41:33;;;;;;;27.10;10.70;;;7.10;99.90;;;;;;5052176;28;20289;-83
2021/03/23 00:43:59;;;;;;;21.60;9.53;;;7.20;99.90;;;;;;5053488;28;20234;-82
2021/03/23 00:46:25;;;;;;;32.00;10.93;;;7.20;99.90;;;;;;5052673;28;20321;-83
2021/03/23 00:48:52;;;;;;;22.87;10.77;;;7.30;99.90;;;;;;5052904;28;20555;-81
2021/03/23 00:51:19;;;;;;;27.17;9.97;;;7.40;99.90;;;;;;5052916;28;20211;-81
2021/03/23 00:53:45;;;;;;;29.50;10.40;;;7.40;99.90;;;;;;5052905;28;20295;-81
2021/03/23 00:56:12;;;;;;;25.47;9.83;;;7.40;99.90;;;;;;5053084;28;20206;-83
2021/03/23 00:58:38;;;;;;;28.07;10.30;;;7.50;99.90;;;;;;5052860;28;20641;-83
2021/03/23 01:01:04;;;;;;;24.43;9.37;;;7.60;99.90;;;;;;5053153;28;20206;-83
2021/03/23 01:03:31;;;;;;;24.50;10.37;;;7.70;99.90;;;;;;5052644;28;20284;-83
2021/03/23 01:05:57;;;;;;;23.87;10.73;;;7.80;99.90;;;;;;5052728;28;20313;-81
2021/03/23 01:08:24;;;;;;;28.73;9.77;;;7.70;99.90;;;;;;5052504;28;20640;-82
2021/03/23 01:10:51;;;;;;;20.37;9.80;;;7.70;99.90;;;;;;5052632;28;20625;-81
2021/03/23 01:13:17;;;;;;;24.33;10.10;;;7.70;99.90;;;;;;5052658;28;20259;-82
2021/03/23 01:15:44;;;;;;;24.30;10.13;;;7.80;99.90;;;;;;5052520;28;20652;-81
2021/03/23 01:18:10;;;;;;;26.60;10.27;;;7.80;99.90;;;;;;5052768;28;20200;-79
2021/03/23 01:20:37;;;;;;;21.27;10.23;;;7.80;99.90;;;;;;5052455;28;20200;-83
2021/03/23 01:23:03;;;;;;;20.33;10.27;;;7.80;99.90;;;;;;5052612;28;20205;-83
2021/03/23 01:25:31;;;;;;;27.63;10.07;;;7.80;99.90;;;;;;5052274;28;20652;-81
2021/03/23 01:27:57;;;;;;;27.33;10.63;;;7.80;99.90;;;;;;5052584;28;20292;-81
2021/03/23 01:30:26;;;;;;;25.30;9.90;;;7.80;99.90;;;;;;5052521;28;20212;-83
2021/03/23 01:32:53;;;;;;;28.67;11.37;;;7.90;99.90;;;;;;5052482;28;20280;-81
2021/03/23 01:35:22;;;;;;;23.00;10.27;;;7.90;99.90;;;;;;5052627;28;20213;-80
2021/03/23 01:37:48;;;;;;;28.97;10.47;;;7.90;99.90;;;;;;5052154;28;20664;-82
2021/03/23 01:40:18;;;;;;;23.10;10.63;;;7.80;99.90;;;;;;5052693;28;20359;-82
2021/03/23 01:42:48;;;;;;;21.17;10.50;;;7.90;99.90;;;;;;5052297;28;20216;-81
2021/03/23 01:45:22;;;;;;;23.67;9.97;;;7.90;99.90;;;;;;5052655;28;20211;-81
2021/03/23 01:47:49;;;;;;;25.20;10.10;;;7.90;99.90;;;;;;5052252;28;20683;-81
2021/03/23 01:50:17;;;;;;;25.57;10.40;;;7.80;99.90;;;;;;5052262;28;20303;-81
2021/03/23 01:52:49;;;;;;;22.23;10.70;;;7.80;99.90;;;;;;5052598;28;20226;-82
2021/03/23 01:55:15;;;;;;;28.73;10.27;;;7.80;99.90;;;;;;5056023;28;20246;-83
2021/03/23 01:57:45;;;;;;;24.77;9.97;;;7.80;99.90;;;;;;5055926;28;20648;-82
2021/03/23 02:00:13;;;;;;;22.30;10.70;;;7.80;99.90;;;;;;5055452;28;20204;-82
2021/03/23 02:02:40;;;;;;;30.70;10.20;;;7.90;99.90;;;;;;5054763;28;20290;-82
2021/03/23 02:05:08;;;;;;;24.63;10.43;;;7.80;99.90;;;;;;5055536;28;20296;-81
2021/03/23 02:07:35;;;;;;;23.70;10.57;;;7.80;99.90;;;;;;5055022;28;20647;-80
2021/03/23 02:10:02;;;;;;;23.80;10.33;;;7.90;99.90;;;;;;5055312;28;20202;-83
2021/03/23 02:12:31;;;;;;;26.67;10.67;;;8.00;99.90;;;;;;5055656;28;20234;-82
2021/03/23 02:14:58;;;;;;;23.83;9.43;;;7.90;99.90;;;;;;5055675;28;20212;-81
2021/03/23 02:17:29;;;;;;;26.50;11.03;;;7.90;99.90;;;;;;5057923;28;20237;-81
2021/03/23 02:19:57;;;;;;;26.80;10.40;;;7.80;99.90;;;;;;5056165;28;20255;-82
2021/03/23 02:22:27;;;;;;;19.87;9.90;;;7.90;99.90;;;;;;5055545;28;20229;-82
2021/03/23 02:24:54;;;;;;;28.40;10.53;;;7.80;99.90;;;;;;5055014;28;20754;-84
2021/03/23 02:27:23;;;;;;;30.13;10.80;;;7.80;99.90;;;;;;5055526;28;20261;-82
2021/03/23 02:29:51;;;;;;;29.03;11.17;;;7.80;99.90;;;;;;5055160;28;20236;-82
2021/03/23 02:32:18;;;;;;;28.13;12.03;;;7.80;99.90;;;;;;5055374;28;20256;-81
2021/03/23 02:34:44;;;;;;;33.47;11.77;;;7.80;99.90;;;;;;5055030;28;20308;-81
2021/03/23 02:37:11;;;;;;;26.87;11.20;;;7.80;99.90;;;;;;5054794;28;20283;-80
2021/03/23 02:39:39;;;;;;;26.23;10.63;;;7.80;99.90;;;;;;5055184;28;20211;-82
2021/03/23 02:42:07;;;;;;;26.03;11.03;;;7.90;99.90;;;;;;5055006;28;20206;-82
2021/03/23 02:44:40;;;;;;;29.07;11.67;;;7.90;99.90;;;;;;5054983;28;20202;-82
2021/03/23 02:47:07;;;;;;;32.93;10.97;;;7.90;99.90;;;;;;5054547;28;20307;-81
2021/03/23 02:49:34;;;;;;;24.33;11.40;;;8.00;99.90;;;;;;5054886;28;20283;-81
2021/03/23 02:52:00;;;;;;;27.97;12.10;;;7.90;99.90;;;;;;5054876;28;20205;-80
2021/03/23 02:54:27;;;;;;;25.63;11.43;;;7.90;99.90;;;;;;5054522;28;20293;-82
2021/03/23 02:56:54;;;;;;;26.40;11.27;;;7.90;99.90;;;;;;5054824;28;20237;-80
2021/03/23 02:59:20;;;;;;;26.97;11.47;;;7.80;99.90;;;;;;5054453;28;20206;-81
2021/03/23 03:01:47;;;;;;;29.03;12.23;;;7.80;99.90;;;;;;5054343;28;20202;-80
2021/03/23 03:04:13;;;;;;;27.10;11.47;;;7.90;99.90;;;;;;5053847;28;20209;-83
2021/03/23 03:06:40;;;;;;;26.77;12.60;;;7.90;99.90;;;;;;5054649;28;20322;-80
2021/03/23 03:09:06;;;;;;;30.53;12.63;;;7.90;99.90;;;;;;5054408;28;20577;-82
2021/03/23 03:11:33;;;;;;;30.93;12.47;;;7.80;99.90;;;;;;5054437;28;20289;-82
2021/03/23 03:14:00;;;;;;;24.07;11.07;;;7.90;99.90;;;;;;5054592;28;20213;-82
2021/03/23 03:16:27;;;;;;;28.63;12.43;;;7.90;99.90;;;;;;5054439;28;20262;-81
2021/03/23 03:18:53;;;;;;;34.57;12.03;;;7.90;99.90;;;;;;5054268;28;20202;-81
2021/03/23 03:21:21;;;;;;;32.63;12.13;;;7.90;99.90;;;;;;5054306;28;20202;-83
2021/03/23 03:23:47;;;;;;;28.17;12.60;;;7.90;99.90;;;;;;5054527;28;20289;-82
2021/03/23 03:26:14;;;;;;;27.80;13.17;;;8.00;99.90;;;;;;5054273;28;20320;-81
2021/03/23 03:28:40;;;;;;;32.73;12.93;;;7.90;99.90;;;;;;5054007;28;20202;-84
2021/03/23 03:31:08;;;;;;;26.70;12.33;;;7.90;99.90;;;;;;5054049;28;20206;-82
2021/03/23 03:33:34;;;;;;;27.73;12.30;;;7.90;99.90;;;;;;5053943;28;20238;-80
2021/03/23 03:36:00;;;;;;;27.87;12.47;;;7.80;99.90;;;;;;5054034;28;20200;-81
2021/03/23 03:38:27;;;;;;;31.90;12.90;;;7.70;99.90;;;;;;5054155;28;20288;-80
2021/03/23 03:40:56;;;;;;;24.97;12.23;;;7.70;99.90;;;;;;5054155;28;20653;-80
2021/03/23 03:43:25;;;;;;;25.90;11.67;;;7.70;99.90;;;;;;5053545;28;20738;-82
2021/03/23 03:45:51;;;;;;;28.23;12.93;;;7.70;99.90;;;;;;5053378;28;20320;-82
2021/03/23 03:48:19;;;;;;;30.40;13.03;;;7.70;99.90;;;;;;5054143;28;20267;-82
2021/03/23 03:50:45;;;;;;;29.20;12.37;;;7.80;99.90;;;;;;5053807;28;20200;-81
2021/03/23 03:53:13;;;;;;;27.07;12.23;;;7.70;99.90;;;;;;5053747;28;20293;-83
2021/03/23 03:55:42;;;;;;;26.20;12.63;;;7.70;99.90;;;;;;5054098;28;20204;-83
2021/03/23 03:58:09;;;;;;;32.47;13.80;;;7.60;99.90;;;;;;5054286;28;20214;-83
2021/03/23 04:00:36;;;;;;;31.43;12.90;;;7.60;99.90;;;;;;5054157;28;20250;-82
2021/03/23 04:03:06;;;;;;;33.87;12.83;;;7.60;99.90;;;;;;5054931;28;20297;-83
2021/03/23 04:05:38;;;;;;;30.47;12.80;;;7.40;99.90;;;;;;5055891;28;20237;-81
2021/03/23 04:08:07;;;;;;;30.47;13.97;;;7.30;99.90;;;;;;5054507;28;20220;-82
2021/03/23 04:10:34;;;;;;;28.97;12.70;;;7.20;99.90;;;;;;5054385;28;20296;-82
2021/03/23 04:13:01;;;;;;;31.37;13.23;;;7.30;99.90;;;;;;5053653;28;20292;-82
2021/03/23 04:15:30;;;;;;;29.27;12.87;;;7.20;99.90;;;;;;5071522;28;20237;-81
2021/03/23 04:17:56;;;;;;;31.27;13.40;;;7.10;99.90;;;;;;5076992;28;20197;-79
2021/03/23 04:20:23;;;;;;;37.40;14.70;;;7.20;99.90;;;;;;5076649;28;20201;-82
2021/03/23 04:22:51;;;;;;;28.03;12.70;;;7.20;99.90;;;;;;5077088;28;20206;-80
2021/03/23 04:25:20;;;;;;;33.60;13.77;;;7.10;99.90;;;;;;5076952;28;20193;-79
2021/03/23 04:27:46;;;;;;;30.50;12.67;;;7.10;99.90;;;;;;5075611;28;20827;-80
2021/03/23 04:30:14;;;;;;;39.17;13.80;;;7.10;99.90;;;;;;5074258;28;20242;-81
2021/03/23 04:32:41;;;;;;;35.83;13.73;;;7.00;99.90;;;;;;5069009;28;20569;-81
2021/03/23 04:35:10;;;;;;;32.73;13.00;;;6.80;99.90;;;;;;5053853;28;20241;-81
2021/03/23 04:37:37;;;;;;;29.53;13.13;;;6.80;99.90;;;;;;5054783;28;20684;-84
2021/03/23 04:40:05;;;;;;;31.27;13.57;;;6.80;99.90;;;;;;5053329;28;20209;-81
2021/03/23 04:42:32;;;;;;;37.13;15.10;;;6.80;99.90;;;;;;5053787;28;20217;-81
2021/03/23 04:44:58;;;;;;;36.50;14.23;;;6.80;99.90;;;;;;5054743;28;20209;-82
2021/03/23 04:47:24;;;;;;;33.53;13.07;;;6.70;99.90;;;;;;5060059;28;20320;-81
2021/03/23 04:49:50;;;;;;;31.37;13.47;;;6.60;99.90;;;;;;5053074;28;20209;-83
2021/03/23 04:52:17;;;;;;;36.30;14.10;;;6.60;99.90;;;;;;5052887;28;20301;-83
2021/03/23 04:54:43;;;;;;;36.23;14.83;;;6.70;99.90;;;;;;5052695;28;20244;-81
2021/03/23 04:57:11;;;;;;;37.57;14.97;;;6.50;99.90;;;;;;5053114;28;20222;-83
2021/03/23 04:59:37;;;;;;;36.17;14.90;;;6.60;99.90;;;;;;5052653;28;20686;-81
2021/03/23 05:02:04;;;;;;;36.97;14.23;;;6.40;99.90;;;;;;5052755;28;20654;-82
2021/03/23 05:04:30;;;;;;;32.63;13.90;;;6.30;99.90;;;;;;5052787;28;20205;-83
2021/03/23 05:06:56;;;;;;;32.10;14.33;;;6.30;99.90;;;;;;5052819;28;20327;-82
2021/03/23 05:09:23;;;;;;;34.53;15.20;;;6.20;99.90;;;;;;5052706;28;20295;-80
2021/03/23 05:11:49;;;;;;;37.17;14.73;;;6.20;99.90;;;;;;5052304;28;20340;-82
2021/03/23 05:14:17;;;;;;;32.83;15.07;;;6.10;99.90;;;;;;5052384;28;20649;-81
2021/03/23 05:16:43;;;;;;;36.50;14.93;;;5.90;99.90;;;;;;5052749;28;20229;-81
2021/03/23 05:19:09;;;;;;;41.27;16.03;;;5.90;99.90;;;;;;5052944;28;20252;-82
2021/03/23 05:21:36;;;;;;;46.15;18.75;;;5.90;99.90;;;;;;5051767;28;20451;-80
2021/03/23 05:24:03;;;;;;;39.27;15.43;;;5.70;99.90;;;;;;5052701;28;20189;-81
2021/03/23 05:26:30;;;;;;;35.03;14.67;;;5.80;99.90;;;;;;5052818;28;20224;-82
2021/03/23 05:28:56;;;;;;;39.37;15.00;;;5.80;99.90;;;;;;5054061;28;20322;-83
2021/03/23 05:31:24;;;;;;;43.07;16.73;;;5.70;99.90;;;;;;5056139;28;20507;-81
2021/03/23 05:33:52;;;;;;;40.33;16.23;;;5.60;99.90;;;;;;5056341;28;20205;-82
2021/03/23 05:36:19;;;;;;;36.87;15.30;;;5.70;99.90;;;;;;5055810;28;20202;-81
2021/03/23 05:38:47;;;;;;;40.17;15.90;;;5.60;99.90;;;;;;5075910;28;20254;-82
2021/03/23 05:41:22;;;;;;;51.20;16.37;;;5.60;99.90;;;;;;5075895;28;20297;-83
2021/03/23 05:43:59;;;;;;;41.07;16.13;;;5.70;99.90;;;;;;5076113;28;20200;-80
2021/03/23 05:46:31;;;;;;;37.73;16.00;;;5.60;99.90;;;;;;5070085;28;20586;-80
2021/03/23 05:49:06;;;;;;;47.27;15.17;;;5.60;99.90;;;;;;5075732;28;20283;-79
2021/03/23 05:51:39;;;;;;;42.20;15.97;;;5.60;99.90;;;;;;5075827;28;20206;-81
2021/03/23 05:54:12;;;;;;;37.33;15.43;;;5.60;99.90;;;;;;5075925;28;20547;-80
2021/03/23 05:56:40;;;;;;;34.40;16.30;;;5.60;99.90;;;;;;5075697;28;20243;-80
2021/03/23 05:59:12;;;;;;;43.77;16.87;;;5.60;99.90;;;;;;5075538;28;20201;-80
2021/03/23 06:01:46;;;;;;;37.47;15.63;;;5.60;99.90;;;;;;5075150;28;20774;-80
2021/03/23 06:04:20;;;;;;;49.40;18.40;;;5.60;99.90;;;;;;5075181;28;20229;-81
2021/03/23 06:06:55;;;;;;;39.10;16.03;;;5.60;99.90;;;;;;5074934;28;20225;-80
2021/03/23 06:09:28;;;;;;;43.73;16.97;;;5.70;99.90;;;;;;5075316;28;20670;-82
2021/03/23 06:12:03;;;;;;;49.23;17.43;;;5.80;99.90;;;;;;5075329;28;20216;-82
2021/03/23 06:14:34;;;;;;;44.88;20.30;;;5.80;99.90;;;;;;5072275;28;20860;-81
2021/03/23 06:17:13;;;;;;;37.50;17.33;;;5.90;99.90;;;;;;5063846;28;20311;-82
2021/03/23 06:19:44;;;;;;;40.57;16.33;;;6.00;99.90;;;;;;5062042;28;20701;-81
2021/03/23 06:22:30;;;;;;;41.07;16.57;;;6.10;99.90;;;;;;5069795;28;20200;-80
2021/03/23 06:25:02;;;;;;;37.33;15.07;;;6.20;99.90;;;;;;5064168;28;20244;-79
2021/03/23 06:27:36;;;;;;;38.30;15.87;;;6.20;99.90;;;;;;5074494;28;20254;-82
2021/03/23 06:30:54;;;;;;;37.57;15.53;;;6.30;99.90;;;;;;5074561;28;20288;-80
2021/03/23 06:33:24;;;;;;;34.13;15.00;;;6.40;99.90;;;;;;4967393;28;20682;-81
2021/03/23 06:35:56;;;;;;;37.57;16.07;;;6.50;99.90;;;;;;5053715;28;20284;-80
2021/03/23 06:38:27;;;;;;;35.93;15.13;;;6.60;99.90;;;;;;5074005;28;20215;-81
2021/03/23 06:41:13;;;;;;;41.10;15.60;;;6.60;99.90;;;;;;5072568;28;20227;-80
2021/03/23 06:43:43;;;;;;;39.67;16.70;;;6.80;99.90;;;;;;5065583;28;20262;-82
2021/03/23 06:46:24;;;;;;;38.33;16.13;;;6.90;99.90;;;;;;5071488;28;20255;-81
2021/03/23 06:49:27;;;;;;;32.60;15.43;;;7.00;99.90;;;;;;5072365;28;20197;-81
2021/03/23 06:52:00;;;;;;;37.30;16.17;;;7.10;99.90;;;;;;5071359;28;20190;-80
2021/03/23 06:54:28;;;;;;;40.23;16.40;;;7.10;99.90;;;;;;5072032;28;20579;-80
2021/03/23 06:57:01;;;;;;;36.07;15.37;;;7.20;99.90;;;;;;5073950;28;20304;-82
2021/03/23 06:59:28;;;;;;;32.23;14.77;;;7.30;99.90;;;;;;5073921;28;20296;-79
2021/03/23 07:02:01;;;;;;;38.73;15.87;;;7.40;99.90;;;;;;5073947;28;20640;-77
2021/03/23 07:04:33;;;;;;;39.37;15.40;;;7.50;99.90;;;;;;5073921;28;20588;-80
2021/03/23 07:07:10;;;;;;;35.63;14.43;;;7.70;99.90;;;;;;5074199;28;20586;-82
2021/03/23 07:09:46;;;;;;;36.77;15.00;;;8.00;99.90;;;;;;5073995;28;20341;-77
2021/03/23 07:12:13;;;;;;;33.03;14.47;;;8.30;99.90;;;;;;5073979;28;20209;-78
2021/03/23 07:14:43;;;;;;;36.13;14.87;;;8.50;99.90;;;;;;5073501;28;20244;-80
2021/03/23 07:17:28;;;;;;;33.03;13.77;;;8.80;99.90;;;;;;5073625;28;20661;-83
2021/03/23 07:20:01;;;;;;;38.13;15.10;;;9.00;99.90;;;;;;5073990;28;20243;-79
2021/03/23 07:22:44;;;;;;;39.17;14.43;;;9.10;99.90;;;;;;5073818;28;20589;-80
2021/03/23 07:25:37;;;;;;;32.77;13.57;;;9.10;99.90;;;;;;5073602;28;20221;-80
2021/03/23 07:28:26;;;;;;;39.73;14.83;;;9.40;99.90;;;;;;5051824;28;21006;-79
2021/03/23 07:31:01;;;;;;;34.80;14.97;;;9.50;99.90;;;;;;5073145;28;20201;-79
2021/03/23 07:33:41;;;;;;;34.40;14.13;;;9.80;99.90;;;;;;5073824;28;20197;-80
2021/03/23 07:36:13;;;;;;;29.50;13.37;;;10.00;99.90;;;;;;5073966;28;20206;-79
2021/03/23 07:38:48;;;;;;;31.03;13.73;;;10.10;99.90;;;;;;5068216;28;20229;-79
2021/03/23 07:41:21;;;;;;;31.37;13.63;;;10.20;99.90;;;;;;5069048;28;20292;-78
2021/03/23 07:43:53;;;;;;;31.93;13.03;;;10.50;99.90;;;;;;5058126;28;20214;-79
2021/03/23 07:46:25;;;;;;;37.43;14.67;;;10.60;99.90;;;;;;5055099;28;20684;-79
2021/03/23 07:48:58;;;;;;;37.30;14.20;;;10.80;99.90;;;;;;5073905;28;20216;-80
2021/03/23 07:51:33;;;;;;;37.17;15.53;;;10.90;99.90;;;;;;5072916;28;20750;-79
2021/03/23 07:54:29;;;;;;;33.73;14.23;;;11.00;99.90;;;;;;5074740;28;20214;-80
2021/03/23 07:57:21;;;;;;;31.07;14.20;;;11.00;99.90;;;;;;5067916;28;20218;-80
2021/03/23 08:00:06;;;;;;;33.50;13.83;;;10.90;99.90;;;;;;5073259;28;20752;-79
2021/03/23 08:02:51;;;;;;;28.30;13.80;;;11.00;99.90;;;;;;5073106;28;20244;-79
2021/03/23 08:05:26;;;;;;;33.20;13.37;;;11.00;99.90;;;;;;5061960;28;20268;-80
2021/03/23 08:08:02;;;;;;;33.23;13.70;;;10.90;99.90;;;;;;5053170;28;20596;-80
2021/03/23 08:10:33;;;;;;;29.87;14.03;;;11.00;99.90;;;;;;5052896;28;20290;-80
2021/03/23 08:13:31;;;;;;;32.83;13.80;;;10.80;99.90;;;;;;5062595;28;20212;-79
2021/03/23 08:16:13;;;;;;;29.33;13.07;;;10.80;99.90;;;;;;5057722;28;20668;-79
2021/03/23 08:19:00;;;;;;;35.43;13.57;;;10.60;99.90;;;;;;5072331;28;20205;-80
2021/03/23 08:22:21;;;;;;;26.30;12.47;;;10.30;99.90;;;;;;5061416;28;20376;-80
2021/03/23 08:25:00;;;;;;;32.07;13.03;;;10.20;99.90;;;;;;4965327;28;20667;-77
2021/03/23 08:27:52;;;;;;;30.40;13.30;;;10.20;99.90;;;;;;5052487;28;20282;-79
2021/03/23 08:30:37;;;;;;;34.93;13.83;;;10.20;99.90;;;;;;5063688;28;20192;-79
2021/03/23 08:33:16;;;;;;;28.97;13.80;;;10.10;99.90;;;;;;5066858;28;20199;-79
2021/03/23 08:36:00;;;;;;;31.80;12.50;;;10.00;99.90;;;;;;5061137;28;20271;-79
2021/03/23 08:38:40;;;;;;;28.07;12.73;;;10.10;99.90;;;;;;5063285;28;20229;-78
2021/03/23 08:41:14;;;;;;;29.80;12.57;;;10.10;99.90;;;;;;5063250;28;20191;-77
2021/03/23 08:43:42;;;;;;;33.77;12.70;;;10.20;99.90;;;;;;5063224;28;20228;-78
2021/03/23 08:46:15;;;;;;;29.73;12.70;;;10.30;99.90;;;;;;5062145;28;20263;-78
2021/03/23 08:48:47;;;;;;;35.67;12.90;;;10.20;99.90;;;;;;5078454;28;20201;-79
2021/03/23 08:51:18;;;;;;;27.33;11.93;;;10.20;99.90;;;;;;5059449;28;20211;-78
2021/03/23 08:53:49;;;;;;;30.57;13.07;;;10.20;99.90;;;;;;5061912;28;20201;-79
2021/03/23 08:56:36;;;;;;;31.87;11.50;;;10.20;99.90;;;;;;5061683;28;20628;-79
2021/03/23 08:59:03;;;;;;;24.40;12.20;;;10.20;99.90;;;;;;5066188;28;20214;-79
2021/03/23 09:01:38;;;;;;;29.47;12.37;;;10.10;99.90;;;;;;5063200;28;20687;-77
2021/03/23 09:04:34;;;;;;;29.07;12.73;;;10.10;99.90;;;;;;5065366;28;20200;-79
2021/03/23 09:07:02;;;;;;;23.70;12.30;;;10.10;99.90;;;;;;5026411;28;20251;-77
2021/03/23 09:09:39;;;;;;;25.43;10.60;;;10.20;99.90;;;;;;5061966;28;20644;-78
2021/03/23 09:12:13;;;;;;;25.33;11.17;;;10.30;99.90;;;;;;5065800;28;21495;-78
2021/03/23 09:15:16;;;;;;;29.53;11.57;;;10.30;99.90;;;;;;5064809;28;20188;-79
2021/03/23 09:17:53;;;;;;;30.70;12.87;;;10.40;99.90;;;;;;5069853;28;20296;-78
2021/03/23 09:20:55;;;;;;;25.73;10.97;;;10.40;99.90;;;;;;5071839;28;20293;-79
2021/03/23 09:23:43;;;;;;;24.47;10.93;;;10.50;99.90;;;;;;5068723;28;20667;-79
2021/03/23 09:26:46;;;;;;;25.90;10.60;;;10.70;99.90;;;;;;5067754;28;20289;-77
2021/03/23 09:29:43;;;;;;;22.47;10.00;;;10.70;99.90;;;;;;5064267;28;20293;-80
2021/03/23 09:32:14;;;;;;;23.10;11.03;;;10.70;99.90;;;;;;5069969;28;20208;-79
2021/03/23 09:35:08;;;;;;;26.27;10.87;;;10.70;99.90;;;;;;5068298;28;20256;-79
2021/03/23 09:37:38;;;;;;;21.43;10.33;;;10.70;99.90;;;;;;5069870;28;20208;-78
2021/03/23 09:40:39;;;;;;;21.93;9.83;;;10.80;99.90;;;;;;5064723;28;20202;-80
2021/03/23 09:43:21;;;;;;;22.90;10.40;;;10.90;99.90;;;;;;5057877;28;20589;-78
2021/03/23 09:45:58;;;;;;;27.03;10.37;;;11.20;99.90;;;;;;5066610;28;20197;-79
2021/03/23 09:48:55;;;;;;;26.93;10.93;;;11.20;99.90;;;;;;5065800;28;20674;-76
2021/03/23 09:51:48;;;;;;;25.63;10.37;;;11.30;99.90;;;;;;5065156;28;20948;-79
2021/03/23 09:54:21;;;;;;;24.33;9.93;;;11.30;99.90;;;;;;5040786;28;20203;-79
2021/03/23 09:56:50;;;;;;;20.90;10.30;;;11.40;99.90;;;;;;5064604;28;20553;-80
2021/03/23 09:59:23;;;;;;;22.77;10.07;;;11.40;99.90;;;;;;5071235;28;20246;-80
2021/03/23 10:02:01;;;;;;;22.27;10.23;;;11.50;99.90;;;;;;5070413;28;20285;-78
2021/03/23 10:04:35;;;;;;;21.90;9.33;;;11.60;99.90;;;;;;5072074;28;20214;-79
2021/03/23 10:07:02;;;;;;;23.90;11.10;;;11.70;99.90;;;;;;5062709;28;20288;-80
2021/03/23 10:09:30;;;;;;;22.93;9.80;;;11.60;99.90;;;;;;5074174;28;20210;-78
2021/03/23 10:11:57;;;;;;;26.50;10.27;;;11.70;99.90;;;;;;5074764;28;20238;-77
2021/03/23 10:14:38;;;;;;;18.53;10.23;;;12.10;99.90;;;;;;5059418;28;20205;-79
2021/03/23 10:17:09;;;;;;;28.47;10.80;;;12.60;99.90;;;;;;5074912;28;20207;-80
2021/03/23 10:19:39;;;;;;;22.10;10.23;;;13.60;99.90;;;;;;5068229;28;20210;-78
2021/03/23 10:22:12;;;;;;;20.43;9.23;;;14.60;99.90;;;;;;5066197;28;20208;-77
2021/03/23 10:24:40;;;;;;;19.23;9.77;;;15.20;99.90;;;;;;5067576;28;20197;-78
2021/03/23 10:27:16;;;;;;;20.43;10.13;;;15.40;99.90;;;;;;5067480;28;20219;-79
2021/03/23 10:30:01;;;;;;;24.43;10.33;;;15.90;99.90;;;;;;5064071;28;20234;-77
2021/03/23 10:32:42;;;;;;;21.27;9.90;;;16.20;99.90;;;;;;5064523;28;20282;-78
2021/03/23 10:35:13;;;;;;;21.70;10.13;;;16.50;99.90;;;;;;5071183;28;20295;-77
2021/03/23 10:37:40;;;;;;;23.43;10.10;;;17.00;99.90;;;;;;5067439;28;20688;-77
2021/03/23 10:40:26;;;;;;;20.30;10.00;;;17.20;99.90;;;;;;5060839;28;20196;-79
2021/03/23 10:42:54;;;;;;;19.83;10.23;;;17.70;99.90;;;;;;5061889;28;20201;-78
2021/03/23 10:45:29;;;;;;;17.60;9.80;;;16.70;99.90;;;;;;5059853;28;20274;-78
2021/03/23 10:48:03;;;;;;;23.47;10.40;;;15.80;99.90;;;;;;5062557;28;20227;-78
2021/03/23 10:50:31;;;;;;;17.80;10.03;;;15.10;99.90;;;;;;5062340;28;20195;-80
2021/03/23 10:53:12;;;;;;;26.10;10.20;;;14.60;99.90;;;;;;5068179;28;20657;-79
2021/03/23 10:55:42;;;;;;;18.97;10.43;;;14.60;99.90;;;;;;5060630;28;20663;-78
2021/03/23 10:58:31;;;;;;;19.57;9.97;;;14.30;99.90;;;;;;5070905;28;20211;-79
2021/03/23 11:01:14;;;;;;;19.33;10.53;;;14.20;99.90;;;;;;5068396;28;20532;-77
2021/03/23 11:03:43;;;;;;;20.60;10.07;;;14.30;99.90;;;;;;5059550;28;20249;-79
2021/03/23 11:06:27;;;;;;;23.43;11.13;;;14.60;99.90;;;;;;5084006;28;20203;-81
2021/03/23 11:08:54;;;;;;;17.47;9.80;;;15.70;99.90;;;;;;5071639;28;20204;-81
2021/03/23 11:11:20;;;;;;;19.73;9.90;;;15.50;99.90;;;;;;5073932;28;20199;-79
2021/03/23 11:13:47;;;;;;;17.20;9.77;;;16.10;99.90;;;;;;5064386;28;20241;-77
2021/03/23 11:16:16;;;;;;;18.13;9.87;;;17.10;99.90;;;;;;5065729;28;20228;-78
2021/03/23 11:18:45;;;;;;;18.07;10.33;;;17.50;99.90;;;;;;5063251;28;20215;-77
2021/03/23 11:21:15;;;;;;;21.17;11.20;;;18.40;99.90;;;;;;5062790;28;20207;-78
2021/03/23 11:23:44;;;;;;;23.13;11.37;;;18.60;99.90;;;;;;5067461;28;20223;-77
2021/03/23 11:26:12;;;;;;;25.00;11.20;;;18.70;99.90;;;;;;5061041;28;20208;-78
2021/03/23 11:28:39;;;;;;;21.23;11.43;;;18.50;99.90;;;;;;5064655;28;20745;-77
2021/03/23 11:31:08;;;;;;;23.03;11.23;;;18.50;99.90;;;;;;5063826;28;20206;-77
2021/03/23 11:33:35;;;;;;;19.37;11.27;;;18.50;99.90;;;;;;5062013;28;20225;-78
2021/03/23 11:36:03;;;;;;;25.17;12.33;;;19.00;99.90;;;;;;5063987;28;20560;-78
2021/03/23 11:38:30;;;;;;;30.07;12.53;;;19.10;99.90;;;;;;5066809;28;20207;-76
2021/03/23 11:40:58;;;;;;;23.57;12.13;;;19.30;99.90;;;;;;5055067;28;20204;-76
2021/03/23 11:43:31;;;;;;;28.43;12.97;;;19.10;99.90;;;;;;5059867;28;20254;-77
2021/03/23 11:46:04;;;;;;;22.97;11.80;;;19.10;99.90;;;;;;5059876;28;20199;-77
2021/03/23 11:48:34;;;;;;;20.73;12.50;;;19.20;99.90;;;;;;5059895;28;20302;-76
2021/03/23 11:51:03;;;;;;;23.37;11.77;;;19.10;99.90;;;;;;5065944;28;20282;-78
2021/03/23 11:53:30;;;;;;;24.77;12.03;;;18.80;99.90;;;;;;5065530;28;20195;-77
2021/03/23 11:55:57;;;;;;;24.13;12.80;;;18.20;99.90;;;;;;5060204;28;20294;-78
2021/03/23 11:58:25;;;;;;;23.43;12.60;;;17.70;99.90;;;;;;5062403;28;20228;-76
2021/03/23 12:00:52;;;;;;;23.57;11.87;;;17.40;99.90;;;;;;5059080;28;20212;-78
2021/03/23 12:03:19;;;;;;;22.47;11.83;;;17.30;99.90;;;;;;5064171;28;20305;-79
2021/03/23 12:05:47;;;;;;;20.07;11.37;;;17.50;99.90;;;;;;5067058;28;20684;-78
2021/03/23 12:08:39;;;;;;;25.97;12.40;;;17.40;99.90;;;;;;5062607;28;20219;-78
2021/03/23 12:11:20;;;;;;;21.30;11.07;;;16.90;99.90;;;;;;5054674;28;20291;-76
2021/03/23 12:13:55;;;;;;;19.17;10.80;;;16.30;99.90;;;;;;5061480;28;20206;-78
2021/03/23 12:16:31;;;;;;;19.07;10.80;;;16.60;99.90;;;;;;5061838;28;20257;-80
2021/03/23 12:19:01;;;;;;;22.17;11.27;;;16.60;99.90;;;;;;5063316;28;20190;-75
2021/03/23 12:21:29;;;;;;;24.20;11.33;;;16.40;99.90;;;;;;5060245;28;20266;-78
2021/03/23 12:23:56;;;;;;;19.83;11.13;;;16.10;99.90;;;;;;5067538;28;20209;-78
2021/03/23 12:26:23;;;;;;;18.70;10.87;;;15.90;99.90;;;;;;5069533;28;20290;-76
2021/03/23 12:28:50;;;;;;;17.93;11.30;;;15.40;99.90;;;;;;5053945;28;20318;-78
2021/03/23 12:31:17;;;;;;;20.70;11.20;;;15.60;99.90;;;;;;5057529;28;20209;-77
2021/03/23 12:33:43;;;;;;;20.17;11.87;;;15.60;99.90;;;;;;5062968;28;20200;-76
2021/03/23 12:36:13;;;;;;;25.67;11.70;;;15.70;99.90;;;;;;5062919;28;20203;-78
2021/03/23 12:38:42;;;;;;;24.27;11.40;;;15.60;99.90;;;;;;5062028;28;20575;-77
2021/03/23 12:41:13;;;;;;;19.70;11.60;;;15.80;99.90;;;;;;5060076;28;20188;-76
2021/03/23 12:43:41;;;;;;;21.33;11.53;;;16.00;99.90;;;;;;5062330;28;20259;-78
2021/03/23 12:46:10;;;;;;;18.93;11.37;;;16.30;99.90;;;;;;5061644;28;20206;-76
2021/03/23 12:48:37;;;;;;;20.93;11.70;;;16.50;99.90;;;;;;5055773;28;20761;-77
2021/03/23 12:51:04;;;;;;;21.23;11.83;;;16.90;99.90;;;;;;5067554;28;20199;-77
2021/03/23 12:53:32;;;;;;;19.00;11.47;;;17.20;99.90;;;;;;5058448;28;20211;-77
2021/03/23 12:55:59;;;;;;;22.73;11.83;;;16.90;99.90;;;;;;5064865;28;20545;-77
2021/03/23 12:58:31;;;;;;;20.53;11.40;;;16.40;99.90;;;;;;5061479;28;20200;-78